Terminal Aerodrome Forecast
Issued by NWS Cleveland, OH

Home | Current Version | Previous Version | Text Only | Print | Product List | Glossary Off
Versions: 1 2 3 4 5 6 7 8 9 10 11 12 13 14 15 16 17 18 19 20 21 22 23 24

000
FTUS41 KCLE 251745
TAFTOL
TAF
KTOL 251745Z 2518/2618 36010KT P6SM BKN009 OVC015
      TEMPO 2518/2520 3SM -SHRA BR SCT009 OVC015
     FM252000 33010KT P6SM SCT009 OVC015
      TEMPO 2520/2524 5SM -RA BR BKN009 OVC015
     FM260000 29007KT P6SM OVC009
     FM261400 27007KT P6SM OVC015
     FM261700 25007KT P6SM SCT015 BKN120=

USA.gov is the U.S. government's official web portal to all federal, state and local government web resources and services.